sensor_id;sensor_type;location;lat;lon;timestamp;pressure;altitude;pressure_sealevel;temperature;humidity
70445;BME280;57902;49.638;11.070;2023-06-10T00:09:12;98013.13;;;14.67;89.89
70445;BME280;57902;49.638;11.070;2023-06-10T00:16:36;98009.91;;;14.62;92.45
70445;BME280;57902;49.638;11.070;2023-06-10T00:30:43;98006.06;;;14.34;96.29
70445;BME280;57902;49.638;11.070;2023-06-10T00:33:47;98010.44;;;14.33;95.57
70445;BME280;57902;49.638;11.070;2023-06-10T00:36:43;98013.19;;;14.30;96.18
70445;BME280;57902;49.638;11.070;2023-06-10T00:50:38;98012.03;;;14.18;95.52
70445;BME280;57902;49.638;11.070;2023-06-10T00:54:11;98010.34;;;14.17;97.55
70445;BME280;57902;49.638;11.070;2023-06-10T01:00:53;98008.97;;;14.10;96.44
70445;BME280;57902;49.638;11.070;2023-06-10T01:04:06;98015.84;;;14.11;97.94
70445;BME280;57902;49.638;11.070;2023-06-10T01:18:46;97999.34;;;13.95;98.51
70445;BME280;57902;49.638;11.070;2023-06-10T01:25:16;98003.13;;;13.88;99.50
70445;BME280;57902;49.638;11.070;2023-06-10T01:28:36;97995.50;;;13.85;98.54
70445;BME280;57902;49.638;11.070;2023-06-10T01:31:28;98001.09;;;13.75;98.93
70445;BME280;57902;49.638;11.070;2023-06-10T01:34:01;98006.00;;;13.81;99.35
70445;BME280;57902;49.638;11.070;2023-06-10T01:36:31;98006.06;;;13.80;100.00
70445;BME280;57902;49.638;11.070;2023-06-10T01:38:59;98009.06;;;13.90;99.93
70445;BME280;57902;49.638;11.070;2023-06-10T01:41:26;98009.44;;;13.82;98.75
70445;BME280;57902;49.638;11.070;2023-06-10T01:43:54;98008.19;;;13.72;100.00
70445;BME280;57902;49.638;11.070;2023-06-10T01:46:21;98004.22;;;13.64;100.00
70445;BME280;57902;49.638;11.070;2023-06-10T01:48:48;98011.97;;;13.64;100.00
70445;BME280;57902;49.638;11.070;2023-06-10T01:51:15;98014.50;;;13.66;100.00
70445;BME280;57902;49.638;11.070;2023-06-10T01:53:41;98003.31;;;13.65;100.00
70445;BME280;57902;49.638;11.070;2023-06-10T01:56:08;98007.78;;;13.62;100.00
70445;BME280;57902;49.638;11.070;2023-06-10T01:58:34;98009.59;;;13.60;100.00
70445;BME280;57902;49.638;11.070;2023-06-10T02:01:01;98019.13;;;13.59;100.00
70445;BME280;57902;49.638;11.070;2023-06-10T02:03:27;98009.91;;;13.54;100.00
70445;BME280;57902;49.638;11.070;2023-06-10T02:05:54;98014.22;;;13.53;100.00
70445;BME280;57902;49.638;11.070;2023-06-10T02:08:21;98010.88;;;13.51;100.00
70445;BME280;57902;49.638;11.070;2023-06-10T02:10:47;98015.34;;;13.47;100.00
70445;BME280;57902;49.638;11.070;2023-06-10T02:13:14;98010.31;;;13.44;100.00
70445;BME280;57902;49.638;11.070;2023-06-10T02:15:40;98015.69;;;13.40;100.00
70445;BME280;57902;49.638;11.070;2023-06-10T02:18:07;98013.31;;;13.35;100.00
70445;BME280;57902;49.638;11.070;2023-06-10T02:20:33;98013.44;;;13.32;100.00
70445;BME280;57902;49.638;11.070;2023-06-10T02:23:00;98010.84;;;13.32;100.00
70445;BME280;57902;49.638;11.070;2023-06-10T02:25:27;98010.91;;;13.30;100.00
70445;BME280;57902;49.638;11.070;2023-06-10T02:27:53;98018.81;;;13.27;100.00
70445;BME280;57902;49.638;11.070;2023-06-10T02:30:20;98019.66;;;13.28;100.00
70445;BME280;57902;49.638;11.070;2023-06-10T02:32:46;98022.22;;;13.28;100.00
70445;BME280;57902;49.638;11.070;2023-06-10T02:35:17;98023.28;;;13.24;100.00
70445;BME280;57902;49.638;11.070;2023-06-10T02:37:44;98022.44;;;13.23;100.00
70445;BME280;57902;49.638;11.070;2023-06-10T02:40:11;98026.16;;;13.18;100.00
70445;BME280;57902;49.638;11.070;2023-06-10T02:42:37;98028.88;;;13.15;100.00
70445;BME280;57902;49.638;11.070;2023-06-10T02:45:04;98029.69;;;13.15;100.00
70445;BME280;57902;49.638;11.070;2023-06-10T02:47:31;98028.06;;;13.12;100.00
70445;BME280;57902;49.638;11.070;2023-06-10T02:49:58;98029.16;;;13.08;100.00
70445;BME280;57902;49.638;11.070;2023-06-10T02:52:24;98029.28;;;13.05;100.00
70445;BME280;57902;49.638;11.070;2023-06-10T02:54:51;98037.03;;;13.05;100.00
70445;BME280;57902;49.638;11.070;2023-06-10T02:57:18;98039.81;;;13.01;100.00
70445;BME280;57902;49.638;11.070;2023-06-10T02:59:44;98033.81;;;13.00;100.00
70445;BME280;57902;49.638;11.070;2023-06-10T03:02:11;98027.00;;;12.98;100.00
70445;BME280;57902;49.638;11.070;2023-06-10T03:04:38;98032.91;;;13.01;100.00
70445;BME280;57902;49.638;11.070;2023-06-10T03:07:04;98036.53;;;12.97;100.00
70445;BME280;57902;49.638;11.070;2023-06-10T03:09:33;98030.44;;;12.98;100.00
70445;BME280;57902;49.638;11.070;2023-06-10T03:12:00;98031.16;;;13.02;100.00
70445;BME280;57902;49.638;11.070;2023-06-10T03:14:27;98025.22;;;13.00;100.00
70445;BME280;57902;49.638;11.070;2023-06-10T03:16:53;98025.22;;;13.00;100.00
70445;BME280;57902;49.638;11.070;2023-06-10T03:19:20;98030.94;;;13.06;100.00
70445;BME280;57902;49.638;11.070;2023-06-10T03:21:49;98029.16;;;13.08;100.00
70445;BME280;57902;49.638;11.070;2023-06-10T03:24:20;98032.56;;;13.09;100.00
70445;BME280;57902;49.638;11.070;2023-06-10T03:26:46;98032.63;;;13.07;100.00
70445;BME280;57902;49.638;11.070;2023-06-10T03:29:13;98033.25;;;13.12;100.00
70445;BME280;57902;49.638;11.070;2023-06-10T03:31:39;98029.78;;;13.13;100.00
70445;BME280;57902;49.638;11.070;2023-06-10T03:34:06;98034.19;;;13.11;100.00
70445;BME280;57902;49.638;11.070;2023-06-10T03:36:33;98039.28;;;13.13;100.00
70445;BME280;57902;49.638;11.070;2023-06-10T03:38:59;98032.28;;;13.15;100.00
70445;BME280;57902;49.638;11.070;2023-06-10T03:41:26;98035.53;;;13.20;100.00
70445;BME280;57902;49.638;11.070;2023-06-10T03:43:52;98035.94;;;13.30;100.00
70445;BME280;57902;49.638;11.070;2023-06-10T03:46:19;98022.88;;;13.33;100.00
70445;BME280;57902;49.638;11.070;2023-06-10T03:48:46;98025.66;;;13.28;100.00
70445;BME280;57902;49.638;11.070;2023-06-10T03:51:12;98029.78;;;13.33;100.00
70445;BME280;57902;49.638;11.070;2023-06-10T03:53:39;98030.19;;;13.44;100.00
70445;BME280;57902;49.638;11.070;2023-06-10T03:56:05;98022.06;;;13.52;100.00
70445;BME280;57902;49.638;11.070;2023-06-10T03:58:32;98031.31;;;13.57;100.00
70445;BME280;57902;49.638;11.070;2023-06-10T04:00:58;98030.25;;;13.61;100.00
70445;BME280;57902;49.638;11.070;2023-06-10T04:03:25;98033.47;;;13.67;100.00
70445;BME280;57902;49.638;11.070;2023-06-10T04:05:52;98032.91;;;13.79;100.00
70445;BME280;57902;49.638;11.070;2023-06-10T04:08:19;98022.81;;;14.09;100.00
70445;BME280;57902;49.638;11.070;2023-06-10T04:10:46;98023.91;;;14.93;97.13
70445;BME280;57902;49.638;11.070;2023-06-10T04:13:13;98025.63;;;15.75;89.87
70445;BME280;57902;49.638;11.070;2023-06-10T04:15:40;98034.41;;;16.36;83.37
70445;BME280;57902;49.638;11.070;2023-06-10T04:18:07;98031.31;;;17.05;81.48
70445;BME280;57902;49.638;11.070;2023-06-10T04:20:34;98026.66;;;17.80;74.96
70445;BME280;57902;49.638;11.070;2023-06-10T04:23:01;98033.47;;;18.38;71.30
70445;BME280;57902;49.638;11.070;2023-06-10T04:25:27;98036.56;;;18.70;68.63
70445;BME280;57902;49.638;11.070;2023-06-10T04:28:01;98032.09;;;18.85;67.90
70445;BME280;57902;49.638;11.070;2023-06-10T04:30:30;98029.63;;;19.09;67.17
70445;BME280;57902;49.638;11.070;2023-06-10T04:32:57;98023.66;;;19.20;67.00
70445;BME280;57902;49.638;11.070;2023-06-10T04:35:24;98030.00;;;19.41;65.41
70445;BME280;57902;49.638;11.070;2023-06-10T04:37:53;98024.19;;;19.62;65.12
70445;BME280;57902;49.638;11.070;2023-06-10T04:40:20;98022.94;;;20.05;63.24
70445;BME280;57902;49.638;11.070;2023-06-10T04:42:47;98022.06;;;20.28;61.59
70445;BME280;57902;49.638;11.070;2023-06-10T04:45:13;98026.84;;;20.35;60.84
70445;BME280;57902;49.638;11.070;2023-06-10T04:47:40;98025.50;;;20.53;60.37
70445;BME280;57902;49.638;11.070;2023-06-10T04:50:07;98035.59;;;20.71;58.97
70445;BME280;57902;49.638;11.070;2023-06-10T04:52:33;98041.22;;;20.89;58.71
70445;BME280;57902;49.638;11.070;2023-06-10T04:55:00;98036.31;;;21.86;56.11
70445;BME280;57902;49.638;11.070;2023-06-10T04:57:27;98036.50;;;22.49;53.04
70445;BME280;57902;49.638;11.070;2023-06-10T04:59:53;98043.72;;;22.36;53.49
70445;BME280;57902;49.638;11.070;2023-06-10T05:02:20;98038.41;;;22.15;54.26
70445;BME280;57902;49.638;11.070;2023-06-10T05:04:50;98049.25;;;22.22;55.15
70445;BME280;57902;49.638;11.070;2023-06-10T05:07:24;98052.31;;;22.59;53.00
70445;BME280;57902;49.638;11.070;2023-06-10T05:09:55;98076.19;;;23.10;50.90
70445;BME280;57902;49.638;11.070;2023-06-10T05:12:26;98072.97;;;23.89;48.81
70445;BME280;57902;49.638;11.070;2023-06-10T05:15:10;98076.03;;;24.04;48.78
70445;BME280;57902;49.638;11.070;2023-06-10T05:17:42;98080.09;;;23.77;51.03
70445;BME280;57902;49.638;11.070;2023-06-10T05:20:11;98076.44;;;23.58;51.52
70445;BME280;57902;49.638;11.070;2023-06-10T05:22:38;98078.34;;;23.56;50.79
70445;BME280;57902;49.638;11.070;2023-06-10T05:25:05;98078.56;;;23.84;51.32
70445;BME280;57902;49.638;11.070;2023-06-10T05:27:32;98073.97;;;23.36;51.87
70445;BME280;57902;49.638;11.070;2023-06-10T05:29:59;98070.78;;;23.32;52.12
70445;BME280;57902;49.638;11.070;2023-06-10T05:32:47;98071.50;;;23.13;51.26
70445;BME280;57902;49.638;11.070;2023-06-10T05:35:14;98073.69;;;24.01;50.63
70445;BME280;57902;49.638;11.070;2023-06-10T05:37:41;98075.22;;;24.23;49.62
70445;BME280;57902;49.638;11.070;2023-06-10T05:40:08;98073.56;;;23.81;51.30
70445;BME280;57902;49.638;11.070;2023-06-10T05:42:35;98063.13;;;24.10;49.82
70445;BME280;57902;49.638;11.070;2023-06-10T05:45:02;98066.72;;;24.00;50.06
70445;BME280;57902;49.638;11.070;2023-06-10T05:47:29;98067.44;;;25.00;48.78
70445;BME280;57902;49.638;11.070;2023-06-10T05:49:55;98073.69;;;25.46;48.07
70445;BME280;57902;49.638;11.070;2023-06-10T05:52:22;98076.16;;;25.57;44.43
70445;BME280;57902;49.638;11.070;2023-06-10T05:54:50;98070.03;;;25.66;46.45
70445;BME280;57902;49.638;11.070;2023-06-10T05:57:16;98075.69;;;25.99;45.37
70445;BME280;57902;49.638;11.070;2023-06-10T05:59:43;98068.16;;;25.77;46.13
70445;BME280;57902;49.638;11.070;2023-06-10T06:02:09;98062.31;;;26.91;42.37
70445;BME280;57902;49.638;11.070;2023-06-10T06:04:36;98059.78;;;27.08;42.94
70445;BME280;57902;49.638;11.070;2023-06-10T06:07:03;98061.50;;;27.17;43.19
70445;BME280;57902;49.638;11.070;2023-06-10T06:09:30;98060.53;;;27.52;41.96
70445;BME280;57902;49.638;11.070;2023-06-10T06:11:56;98070.38;;;27.68;42.15
70445;BME280;57902;49.638;11.070;2023-06-10T06:14:23;98066.97;;;27.23;42.00
70445;BME280;57902;49.638;11.070;2023-06-10T06:16:49;98057.13;;;28.27;39.55
70445;BME280;57902;49.638;11.070;2023-06-10T06:19:16;98060.63;;;28.94;37.64
70445;BME280;57902;49.638;11.070;2023-06-10T06:21:43;98064.41;;;28.25;40.65
70445;BME280;57902;49.638;11.070;2023-06-10T06:24:09;98067.09;;;28.50;39.40
70445;BME280;57902;49.638;11.070;2023-06-10T06:26:36;98068.22;;;28.15;41.21
70445;BME280;57902;49.638;11.070;2023-06-10T06:29:03;98067.63;;;28.87;39.08
70445;BME280;57902;49.638;11.070;2023-06-10T06:31:30;98061.47;;;28.94;39.22
70445;BME280;57902;49.638;11.070;2023-06-10T06:33:57;98071.19;;;29.35;37.70
70445;BME280;57902;49.638;11.070;2023-06-10T06:36:23;98065.91;;;29.02;38.50
70445;BME280;57902;49.638;11.070;2023-06-10T06:38:50;98074.38;;;29.70;37.41
70445;BME280;57902;49.638;11.070;2023-06-10T06:41:17;98068.94;;;29.63;36.20
70445;BME280;57902;49.638;11.070;2023-06-10T06:43:43;98063.97;;;28.71;40.37
70445;BME280;57902;49.638;11.070;2023-06-10T06:46:10;98073.91;;;28.77;40.01
70445;BME280;57902;49.638;11.070;2023-06-10T06:48:36;98073.13;;;29.89;36.60
70445;BME280;57902;49.638;11.070;2023-06-10T06:51:03;98066.00;;;29.81;37.26
70445;BME280;57902;49.638;11.070;2023-06-10T06:53:29;98068.38;;;29.28;38.34
70445;BME280;57902;49.638;11.070;2023-06-10T06:55:57;98065.88;;;29.19;39.21
70445;BME280;57902;49.638;11.070;2023-06-10T06:58:24;98068.69;;;29.33;39.53
70445;BME280;57902;49.638;11.070;2023-06-10T07:00:50;98077.00;;;29.30;38.22
70445;BME280;57902;49.638;11.070;2023-06-10T07:03:17;98072.19;;;29.34;38.08
70445;BME280;57902;49.638;11.070;2023-06-10T07:05:43;98076.38;;;29.68;38.45
70445;BME280;57902;49.638;11.070;2023-06-10T07:08:10;98069.91;;;30.57;36.05
70445;BME280;57902;49.638;11.070;2023-06-10T07:10:38;98081.50;;;30.09;37.45
70445;BME280;57902;49.638;11.070;2023-06-10T07:13:04;98077.06;;;30.01;38.36
70445;BME280;57902;49.638;11.070;2023-06-10T07:15:31;98071.16;;;31.07;35.03
70445;BME280;57902;49.638;11.070;2023-06-10T07:17:59;98070.69;;;31.18;34.24
70445;BME280;57902;49.638;11.070;2023-06-10T07:20:25;98072.69;;;30.63;36.94
70445;BME280;57902;49.638;11.070;2023-06-10T07:22:52;98085.13;;;30.86;36.08
70445;BME280;57902;49.638;11.070;2023-06-10T07:25:18;98077.38;;;30.30;36.61
70445;BME280;57902;49.638;11.070;2023-06-10T07:27:45;98076.94;;;31.26;31.78
70445;BME280;57902;49.638;11.070;2023-06-10T07:30:12;98073.59;;;30.56;32.85
70445;BME280;57902;49.638;11.070;2023-06-10T07:32:38;98077.53;;;30.98;31.85
70445;BME280;57902;49.638;11.070;2023-06-10T07:35:09;98074.88;;;30.05;35.81
70445;BME280;57902;49.638;11.070;2023-06-10T07:37:39;98076.53;;;30.06;36.65
70445;BME280;57902;49.638;11.070;2023-06-10T07:40:06;98072.47;;;30.18;37.21
70445;BME280;57902;49.638;11.070;2023-06-10T07:42:36;98068.50;;;30.69;35.37
70445;BME280;57902;49.638;11.070;2023-06-10T07:45:04;98072.75;;;29.61;35.81
70445;BME280;57902;49.638;11.070;2023-06-10T07:47:32;98072.47;;;29.95;35.23
70445;BME280;57902;49.638;11.070;2023-06-10T07:49:59;98068.41;;;30.08;36.18
70445;BME280;57902;49.638;11.070;2023-06-10T07:52:26;98056.59;;;30.95;32.92
70445;BME280;57902;49.638;11.070;2023-06-10T07:54:54;98060.78;;;30.74;33.46
70445;BME280;57902;49.638;11.070;2023-06-10T07:57:21;98057.59;;;30.32;35.41
70445;BME280;57902;49.638;11.070;2023-06-10T07:59:47;98058.06;;;30.97;33.42
70445;BME280;57902;49.638;11.070;2023-06-10T08:02:15;98064.44;;;30.73;33.59
70445;BME280;57902;49.638;11.070;2023-06-10T08:04:41;98062.50;;;31.20;31.88
70445;BME280;57902;49.638;11.070;2023-06-10T08:07:08;98051.06;;;30.81;33.62
70445;BME280;57902;49.638;11.070;2023-06-10T08:09:34;98057.47;;;30.26;33.23
70445;BME280;57902;49.638;11.070;2023-06-10T08:12:01;98049.81;;;30.31;32.49
70445;BME280;57902;49.638;11.070;2023-06-10T08:14:28;98061.69;;;30.66;32.02
70445;BME280;57902;49.638;11.070;2023-06-10T08:16:54;98060.06;;;30.11;33.64
70445;BME280;57902;49.638;11.070;2023-06-10T08:19:21;98057.69;;;29.93;32.58
70445;BME280;57902;49.638;11.070;2023-06-10T08:21:47;98058.41;;;30.10;33.30
70445;BME280;57902;49.638;11.070;2023-06-10T08:24:14;98048.56;;;30.65;33.82
70445;BME280;57902;49.638;11.070;2023-06-10T08:26:44;98053.16;;;30.71;32.72
70445;BME280;57902;49.638;11.070;2023-06-10T08:29:12;98065.25;;;30.27;33.00
70445;BME280;57902;49.638;11.070;2023-06-10T08:31:44;98048.28;;;30.36;33.43
70445;BME280;57902;49.638;11.070;2023-06-10T08:34:10;98054.69;;;29.96;33.63
70445;BME280;57902;49.638;11.070;2023-06-10T08:36:38;98050.44;;;29.70;34.45
70445;BME280;57902;49.638;11.070;2023-06-10T08:39:04;98046.91;;;30.17;32.92
70445;BME280;57902;49.638;11.070;2023-06-10T08:41:35;98049.47;;;30.02;35.88
70445;BME280;57902;49.638;11.070;2023-06-10T08:46:44;98048.78;;;29.21;35.23
70445;BME280;57902;49.638;11.070;2023-06-10T08:49:17;98049.63;;;29.38;35.43
70445;BME280;57902;49.638;11.070;2023-06-10T08:51:45;98049.53;;;28.98;35.57
70445;BME280;57902;49.638;11.070;2023-06-10T08:54:17;98054.81;;;28.98;36.17
70445;BME280;57902;49.638;11.070;2023-06-10T08:56:48;98041.09;;;28.70;35.45
70445;BME280;57902;49.638;11.070;2023-06-10T08:59:15;98052.19;;;28.57;36.61
70445;BME280;57902;49.638;11.070;2023-06-10T09:01:43;98038.59;;;28.69;37.42
70445;BME280;57902;49.638;11.070;2023-06-10T09:04:10;98042.88;;;28.28;35.98
70445;BME280;57902;49.638;11.070;2023-06-10T09:06:38;98030.28;;;28.31;37.79
70445;BME280;57902;49.638;11.070;2023-06-10T09:09:06;98037.25;;;28.32;37.66
70445;BME280;57902;49.638;11.070;2023-06-10T09:11:33;98034.75;;;28.22;36.07
70445;BME280;57902;49.638;11.070;2023-06-10T09:14:00;98033.59;;;28.16;36.53
70445;BME280;57902;49.638;11.070;2023-06-10T09:16:26;98033.78;;;28.15;37.01
70445;BME280;57902;49.638;11.070;2023-06-10T09:18:53;98028.25;;;28.00;37.72
70445;BME280;57902;49.638;11.070;2023-06-10T09:21:25;98040.72;;;28.07;37.91
70445;BME280;57902;49.638;11.070;2023-06-10T09:23:52;98029.63;;;28.12;38.62
70445;BME280;57902;49.638;11.070;2023-06-10T09:26:18;98030.75;;;28.01;37.20
70445;BME280;57902;49.638;11.070;2023-06-10T09:28:48;98023.38;;;27.79;36.67
70445;BME280;57902;49.638;11.070;2023-06-10T09:31:16;98029.94;;;27.58;38.04
70445;BME280;57902;49.638;11.070;2023-06-10T09:33:45;98030.38;;;27.45;38.65
70445;BME280;57902;49.638;11.070;2023-06-10T09:36:21;98022.81;;;27.50;39.58
70445;BME280;57902;49.638;11.070;2023-06-10T09:38:49;98030.84;;;27.06;38.95
70445;BME280;57902;49.638;11.070;2023-06-10T09:41:17;98028.28;;;26.96;39.37
70445;BME280;57902;49.638;11.070;2023-06-10T09:43:45;98025.09;;;26.66;39.62
70445;BME280;57902;49.638;11.070;2023-06-10T09:46:17;98029.44;;;26.13;41.05
70445;BME280;57902;49.638;11.070;2023-06-10T09:48:45;98025.34;;;26.01;41.27
70445;BME280;57902;49.638;11.070;2023-06-10T09:51:13;98024.81;;;26.33;41.62
70445;BME280;57902;49.638;11.070;2023-06-10T09:53:40;98016.13;;;26.41;40.65
70445;BME280;57902;49.638;11.070;2023-06-10T09:56:07;98031.59;;;26.54;40.86
70445;BME280;57902;49.638;11.070;2023-06-10T09:58:38;98019.75;;;26.58;40.99
70445;BME280;57902;49.638;11.070;2023-06-10T10:01:09;98028.81;;;26.55;38.92
70445;BME280;57902;49.638;11.070;2023-06-10T10:03:51;98017.63;;;26.80;39.38
70445;BME280;57902;49.638;11.070;2023-06-10T10:06:19;98013.72;;;26.92;40.13
70445;BME280;57902;49.638;11.070;2023-06-10T10:08:48;98024.19;;;26.76;38.62
70445;BME280;57902;49.638;11.070;2023-06-10T10:11:20;98017.16;;;26.84;39.70
70445;BME280;57902;49.638;11.070;2023-06-10T10:13:51;98020.31;;;26.88;39.62
70445;BME280;57902;49.638;11.070;2023-06-10T10:16:32;98014.81;;;26.63;40.15
70445;BME280;57902;49.638;11.070;2023-06-10T10:19:46;98033.59;;;26.52;40.77
70445;BME280;57902;49.638;11.070;2023-06-10T10:21:54;98029.81;;;26.00;41.50
70445;BME280;57902;49.638;11.070;2023-06-10T10:24:32;98030.66;;;25.91;42.32
70445;BME280;57902;49.638;11.070;2023-06-10T10:27:01;98036.69;;;26.11;41.72
70445;BME280;57902;49.638;11.070;2023-06-10T10:29:39;98035.88;;;26.11;41.40
70445;BME280;57902;49.638;11.070;2023-06-10T10:32:10;98028.41;;;25.96;42.17
70445;BME280;57902;49.638;11.070;2023-06-10T10:34:49;98022.34;;;26.14;42.61
70445;BME280;57902;49.638;11.070;2023-06-10T10:37:17;98023.63;;;26.10;41.59
70445;BME280;57902;49.638;11.070;2023-06-10T10:39:44;98033.00;;;25.94;41.84
70445;BME280;57902;49.638;11.070;2023-06-10T10:42:12;98018.00;;;25.77;42.58
70445;BME280;57902;49.638;11.070;2023-06-10T10:44:42;98037.19;;;25.69;42.15
70445;BME280;57902;49.638;11.070;2023-06-10T10:47:09;98036.38;;;25.68;41.53
70445;BME280;57902;49.638;11.070;2023-06-10T10:49:37;98039.59;;;25.62;42.36
70445;BME280;57902;49.638;11.070;2023-06-10T10:52:04;98028.56;;;25.77;41.67
70445;BME280;57902;49.638;11.070;2023-06-10T10:54:36;98014.81;;;25.91;42.18
70445;BME280;57902;49.638;11.070;2023-06-10T10:57:20;98019.03;;;25.84;41.29
70445;BME280;57902;49.638;11.070;2023-06-10T10:59:57;98011.84;;;26.22;41.21
70445;BME280;57902;49.638;11.070;2023-06-10T11:02:32;98023.78;;;26.26;40.18
70445;BME280;57902;49.638;11.070;2023-06-10T11:05:00;98018.66;;;26.07;41.74
70445;BME280;57902;49.638;11.070;2023-06-10T11:07:30;98021.91;;;26.18;42.55
70445;BME280;57902;49.638;11.070;2023-06-10T11:10:08;98024.91;;;26.42;40.78
70445;BME280;57902;49.638;11.070;2023-06-10T11:15:24;98017.88;;;26.68;40.42
70445;BME280;57902;49.638;11.070;2023-06-10T11:18:12;98017.03;;;26.94;41.06
70445;BME280;57902;49.638;11.070;2023-06-10T11:21:09;98021.72;;;27.00;40.32
70445;BME280;57902;49.638;11.070;2023-06-10T11:23:40;98017.63;;;27.06;39.88
70445;BME280;57902;49.638;11.070;2023-06-10T11:31:26;98019.72;;;27.02;39.84
70445;BME280;57902;49.638;11.070;2023-06-10T11:36:21;98026.00;;;26.57;40.86
70445;BME280;57902;49.638;11.070;2023-06-10T11:38:48;98025.88;;;26.05;42.05
70445;BME280;57902;49.638;11.070;2023-06-10T11:41:17;98016.53;;;26.28;42.26
70445;BME280;57902;49.638;11.070;2023-06-10T11:43:47;98019.09;;;26.02;42.76
70445;BME280;57902;49.638;11.070;2023-06-10T11:46:14;98011.53;;;26.07;42.14
70445;BME280;57902;49.638;11.070;2023-06-10T11:49:02;98011.22;;;25.92;42.81
70445;BME280;57902;49.638;11.070;2023-06-10T11:51:31;98006.22;;;25.89;43.05
70445;BME280;57902;49.638;11.070;2023-06-10T11:53:58;98012.81;;;26.03;42.85
70445;BME280;57902;49.638;11.070;2023-06-10T11:56:26;97995.91;;;25.96;43.54
70445;BME280;57902;49.638;11.070;2023-06-10T11:59:04;98000.00;;;26.08;43.36
70445;BME280;57902;49.638;11.070;2023-06-10T12:01:33;97987.63;;;26.53;43.60
70445;BME280;57902;49.638;11.070;2023-06-10T12:04:09;97991.50;;;26.77;42.41
70445;BME280;57902;49.638;11.070;2023-06-10T12:06:42;97986.72;;;26.62;42.60
70445;BME280;57902;49.638;11.070;2023-06-10T12:09:13;98003.03;;;26.76;42.89
70445;BME280;57902;49.638;11.070;2023-06-10T12:12:01;98006.88;;;26.37;42.79
70445;BME280;57902;49.638;11.070;2023-06-10T12:14:50;97993.44;;;26.30;42.55
70445;BME280;57902;49.638;11.070;2023-06-10T12:17:22;97995.00;;;26.41;43.13
70445;BME280;57902;49.638;11.070;2023-06-10T12:19:50;97992.25;;;26.69;41.48
70445;BME280;57902;49.638;11.070;2023-06-10T12:22:46;97990.72;;;26.84;40.92
70445;BME280;57902;49.638;11.070;2023-06-10T12:25:51;97990.88;;;26.91;40.30
70445;BME280;57902;49.638;11.070;2023-06-10T12:28:21;97997.09;;;26.55;40.80
70445;BME280;57902;49.638;11.070;2023-06-10T12:30:48;97993.97;;;26.60;40.97
70445;BME280;57902;49.638;11.070;2023-06-10T12:33:18;97994.13;;;26.77;40.97
70445;BME280;57902;49.638;11.070;2023-06-10T12:35:49;97991.59;;;27.01;39.65
70445;BME280;57902;49.638;11.070;2023-06-10T12:38:23;97985.88;;;27.40;39.38
70445;BME280;57902;49.638;11.070;2023-06-10T12:40:50;97979.75;;;27.40;39.19
70445;BME280;57902;49.638;11.070;2023-06-10T12:43:21;97980.25;;;27.35;38.86
70445;BME280;57902;49.638;11.070;2023-06-10T12:45:49;97982.09;;;27.43;39.84
70445;BME280;57902;49.638;11.070;2023-06-10T12:48:23;97974.50;;;27.65;38.88
70445;BME280;57902;49.638;11.070;2023-06-10T12:51:01;97972.34;;;27.52;38.60
70445;BME280;57902;49.638;11.070;2023-06-10T12:53:28;97975.28;;;27.40;39.02
70445;BME280;57902;49.638;11.070;2023-06-10T12:55:54;97980.50;;;27.32;39.62
70445;BME280;57902;49.638;11.070;2023-06-10T12:58:21;97973.81;;;27.12;39.18
70445;BME280;57902;49.638;11.070;2023-06-10T13:01:02;97970.88;;;27.23;38.71
70445;BME280;57902;49.638;11.070;2023-06-10T13:03:29;97968.81;;;27.09;37.64
70445;BME280;57902;49.638;11.070;2023-06-10T13:05:55;97967.91;;;27.18;38.59
70445;BME280;57902;49.638;11.070;2023-06-10T13:08:22;97975.94;;;27.34;38.23
70445;BME280;57902;49.638;11.070;2023-06-10T13:10:48;97975.03;;;27.26;38.36
70445;BME280;57902;49.638;11.070;2023-06-10T13:13:18;97972.72;;;27.31;37.97
70445;BME280;57902;49.638;11.070;2023-06-10T13:15:44;97967.56;;;27.21;37.84
70445;BME280;57902;49.638;11.070;2023-06-10T13:18:11;97975.00;;;27.17;39.25
70445;BME280;57902;49.638;11.070;2023-06-10T13:20:39;97970.22;;;27.21;39.40
70445;BME280;57902;49.638;11.070;2023-06-10T13:23:05;97970.72;;;27.24;39.96
70445;BME280;57902;49.638;11.070;2023-06-10T13:25:32;97970.53;;;27.18;38.38
70445;BME280;57902;49.638;11.070;2023-06-10T13:27:58;97965.97;;;27.28;38.34
70445;BME280;57902;49.638;11.070;2023-06-10T13:30:27;97960.13;;;27.24;37.29
70445;BME280;57902;49.638;11.070;2023-06-10T13:33:23;97958.94;;;27.11;38.32
70445;BME280;57902;49.638;11.070;2023-06-10T13:36:08;97960.47;;;27.21;37.36
70445;BME280;57902;49.638;11.070;2023-06-10T13:41:22;97952.94;;;27.00;37.97
70445;BME280;57902;49.638;11.070;2023-06-10T13:43:49;97953.28;;;27.05;37.04
70445;BME280;57902;49.638;11.070;2023-06-10T13:46:20;97949.59;;;26.98;38.14
70445;BME280;57902;49.638;11.070;2023-06-10T13:49:14;97949.84;;;26.79;38.82
70445;BME280;57902;49.638;11.070;2023-06-10T13:51:57;97941.91;;;26.79;38.93
70445;BME280;57902;49.638;11.070;2023-06-10T13:54:42;97958.25;;;27.09;37.45
70445;BME280;57902;49.638;11.070;2023-06-10T13:57:09;97941.66;;;26.98;37.68
70445;BME280;57902;49.638;11.070;2023-06-10T13:59:37;97932.44;;;27.02;37.75
70445;BME280;57902;49.638;11.070;2023-06-10T14:02:03;97936.75;;;27.12;38.91
70445;BME280;57902;49.638;11.070;2023-06-10T14:04:35;97939.81;;;27.25;38.32
70445;BME280;57902;49.638;11.070;2023-06-10T14:07:02;97937.56;;;27.47;38.38
70445;BME280;57902;49.638;11.070;2023-06-10T14:09:32;97942.38;;;27.51;38.27
70445;BME280;57902;49.638;11.070;2023-06-10T14:11:59;97941.91;;;27.56;38.35
70445;BME280;57902;49.638;11.070;2023-06-10T14:14:31;97946.88;;;27.16;39.47